sensor_id;sensor_type;location;lat;lon;timestamp;temperature;humidity
9329;DHT22;4703;48.748;19.142;2022-08-18T00:01:23;21.80;99.90
9329;DHT22;4703;48.748;19.142;2022-08-18T00:03:50;21.80;99.90
9329;DHT22;4703;48.748;19.142;2022-08-18T00:06:23;21.80;99.90
9329;DHT22;4703;48.748;19.142;2022-08-18T00:08:54;21.80;99.90
9329;DHT22;4703;48.748;19.142;2022-08-18T00:11:23;21.70;99.90
9329;DHT22;4703;48.748;19.142;2022-08-18T00:13:50;21.70;99.90
9329;DHT22;4703;48.748;19.142;2022-08-18T00:16:16;21.70;99.90
9329;DHT22;4703;48.748;19.142;2022-08-18T00:18:43;21.70;99.90
9329;DHT22;4703;48.748;19.142;2022-08-18T00:21:10;21.60;99.90
9329;DHT22;4703;48.748;19.142;2022-08-18T00:23:37;21.60;99.90
9329;DHT22;4703;48.748;19.142;2022-08-18T00:26:05;21.70;99.90
9329;DHT22;4703;48.748;19.142;2022-08-18T00:28:32;21.70;99.90
9329;DHT22;4703;48.748;19.142;2022-08-18T00:31:00;21.60;99.70
9329;DHT22;4703;48.748;19.142;2022-08-18T00:33:27;21.60;99.90
9329;DHT22;4703;48.748;19.142;2022-08-18T00:35:54;21.50;99.90
9329;DHT22;4703;48.748;19.142;2022-08-18T00:38:22;21.30;99.90
9329;DHT22;4703;48.748;19.142;2022-08-18T00:40:52;21.40;99.90
9329;DHT22;4703;48.748;19.142;2022-08-18T00:43:43;21.30;99.90
9329;DHT22;4703;48.748;19.142;2022-08-18T00:46:16;21.30;99.90
9329;DHT22;4703;48.748;19.142;2022-08-18T00:48:45;21.30;99.90
9329;DHT22;4703;48.748;19.142;2022-08-18T00:53:57;21.20;99.90
9329;DHT22;4703;48.748;19.142;2022-08-18T00:56:33;21.10;99.90
9329;DHT22;4703;48.748;19.142;2022-08-18T01:02:36;21.10;99.90
9329;DHT22;4703;48.748;19.142;2022-08-18T01:05:19;21.10;99.90
9329;DHT22;4703;48.748;19.142;2022-08-18T01:07:50;21.00;99.90
9329;DHT22;4703;48.748;19.142;2022-08-18T01:10:20;20.90;99.90
9329;DHT22;4703;48.748;19.142;2022-08-18T01:12:51;20.90;99.90
9329;DHT22;4703;48.748;19.142;2022-08-18T01:15:20;20.90;99.90
9329;DHT22;4703;48.748;19.142;2022-08-18T01:18:04;20.90;99.90
9329;DHT22;4703;48.748;19.142;2022-08-18T01:23:47;20.90;99.90
9329;DHT22;4703;48.748;19.142;2022-08-18T01:26:16;20.90;99.90
9329;DHT22;4703;48.748;19.142;2022-08-18T01:28:45;20.80;99.90
9329;DHT22;4703;48.748;19.142;2022-08-18T01:31:29;20.70;99.90
9329;DHT22;4703;48.748;19.142;2022-08-18T01:33:59;20.60;99.90
9329;DHT22;4703;48.748;19.142;2022-08-18T01:36:27;20.60;99.90
9329;DHT22;4703;48.748;19.142;2022-08-18T01:38:55;20.60;99.90
9329;DHT22;4703;48.748;19.142;2022-08-18T01:41:23;20.70;99.90
9329;DHT22;4703;48.748;19.142;2022-08-18T01:43:57;20.70;99.90
9329;DHT22;4703;48.748;19.142;2022-08-18T01:46:26;20.60;99.90
9329;DHT22;4703;48.748;19.142;2022-08-18T01:48:54;20.70;99.90
9329;DHT22;4703;48.748;19.142;2022-08-18T01:51:22;20.50;99.90
9329;DHT22;4703;48.748;19.142;2022-08-18T01:54:10;20.50;99.90
9329;DHT22;4703;48.748;19.142;2022-08-18T01:56:39;20.40;99.90
9329;DHT22;4703;48.748;19.142;2022-08-18T01:59:09;20.40;99.90
9329;DHT22;4703;48.748;19.142;2022-08-18T02:01:41;20.30;99.90
9329;DHT22;4703;48.748;19.142;2022-08-18T02:04:20;20.30;99.90
9329;DHT22;4703;48.748;19.142;2022-08-18T02:07:09;20.30;99.90
9329;DHT22;4703;48.748;19.142;2022-08-18T02:09:38;20.30;99.90
9329;DHT22;4703;48.748;19.142;2022-08-18T02:12:07;20.30;99.90
9329;DHT22;4703;48.748;19.142;2022-08-18T02:14:35;20.20;99.90
9329;DHT22;4703;48.748;19.142;2022-08-18T02:17:04;20.20;99.90
9329;DHT22;4703;48.748;19.142;2022-08-18T02:19:35;20.20;99.90
9329;DHT22;4703;48.748;19.142;2022-08-18T02:22:06;20.10;99.90
9329;DHT22;4703;48.748;19.142;2022-08-18T02:24:34;20.10;99.90
9329;DHT22;4703;48.748;19.142;2022-08-18T02:27:01;20.10;99.90
9329;DHT22;4703;48.748;19.142;2022-08-18T02:29:28;20.10;99.90
9329;DHT22;4703;48.748;19.142;2022-08-18T02:31:55;20.50;99.90
9329;DHT22;4703;48.748;19.142;2022-08-18T02:34:22;20.00;99.90
9329;DHT22;4703;48.748;19.142;2022-08-18T02:36:49;20.10;99.90
9329;DHT22;4703;48.748;19.142;2022-08-18T02:39:17;20.10;99.90
9329;DHT22;4703;48.748;19.142;2022-08-18T02:41:45;20.10;99.90
9329;DHT22;4703;48.748;19.142;2022-08-18T02:44:12;20.10;99.90
9329;DHT22;4703;48.748;19.142;2022-08-18T02:46:39;20.00;99.90
9329;DHT22;4703;48.748;19.142;2022-08-18T02:49:06;19.90;99.90
9329;DHT22;4703;48.748;19.142;2022-08-18T02:51:34;19.90;99.90
9329;DHT22;4703;48.748;19.142;2022-08-18T02:54:01;19.90;99.90
9329;DHT22;4703;48.748;19.142;2022-08-18T02:56:29;19.90;99.90
9329;DHT22;4703;48.748;19.142;2022-08-18T02:59:10;19.80;99.90
9329;DHT22;4703;48.748;19.142;2022-08-18T03:01:42;19.80;99.90
9329;DHT22;4703;48.748;19.142;2022-08-18T03:04:14;19.80;99.90
9329;DHT22;4703;48.748;19.142;2022-08-18T03:06:43;19.80;99.90
9329;DHT22;4703;48.748;19.142;2022-08-18T03:09:13;19.80;99.90
9329;DHT22;4703;48.748;19.142;2022-08-18T03:11:41;19.80;99.90
9329;DHT22;4703;48.748;19.142;2022-08-18T03:14:09;19.80;99.90
9329;DHT22;4703;48.748;19.142;2022-08-18T03:16:42;19.80;99.90
9329;DHT22;4703;48.748;19.142;2022-08-18T03:19:21;19.80;99.90
9329;DHT22;4703;48.748;19.142;2022-08-18T03:21:49;19.70;99.90
9329;DHT22;4703;48.748;19.142;2022-08-18T03:24:16;19.70;99.90
9329;DHT22;4703;48.748;19.142;2022-08-18T03:26:50;19.70;99.90
9329;DHT22;4703;48.748;19.142;2022-08-18T03:29:19;19.60;99.90
9329;DHT22;4703;48.748;19.142;2022-08-18T03:31:47;19.70;99.90
9329;DHT22;4703;48.748;19.142;2022-08-18T03:34:16;19.60;99.90
9329;DHT22;4703;48.748;19.142;2022-08-18T03:36:46;19.60;99.90
9329;DHT22;4703;48.748;19.142;2022-08-18T03:39:16;19.60;99.90
9329;DHT22;4703;48.748;19.142;2022-08-18T03:41:44;19.60;99.90
9329;DHT22;4703;48.748;19.142;2022-08-18T03:44:27;19.60;99.90
9329;DHT22;4703;48.748;19.142;2022-08-18T03:46:59;19.60;99.90
9329;DHT22;4703;48.748;19.142;2022-08-18T03:49:30;19.60;99.90
9329;DHT22;4703;48.748;19.142;2022-08-18T03:51:59;19.50;99.90
9329;DHT22;4703;48.748;19.142;2022-08-18T03:54:28;21.80;99.90
9329;DHT22;4703;48.748;19.142;2022-08-18T03:56:58;19.50;99.90
9329;DHT22;4703;48.748;19.142;2022-08-18T03:59:26;19.40;99.90
9329;DHT22;4703;48.748;19.142;2022-08-18T04:01:56;19.40;99.90
9329;DHT22;4703;48.748;19.142;2022-08-18T04:04:26;21.90;99.90
9329;DHT22;4703;48.748;19.142;2022-08-18T04:06:59;19.40;99.90
9329;DHT22;4703;48.748;19.142;2022-08-18T04:09:31;19.40;99.90
9329;DHT22;4703;48.748;19.142;2022-08-18T04:12:03;21.50;99.90
9329;DHT22;4703;48.748;19.142;2022-08-18T04:14:44;19.40;99.90
9329;DHT22;4703;48.748;19.142;2022-08-18T04:17:18;19.70;99.90
9329;DHT22;4703;48.748;19.142;2022-08-18T04:19:53;19.40;99.90
9329;DHT22;4703;48.748;19.142;2022-08-18T04:22:22;19.40;99.90
9329;DHT22;4703;48.748;19.142;2022-08-18T04:24:50;19.40;99.90
9329;DHT22;4703;48.748;19.142;2022-08-18T04:27:19;19.40;99.90
9329;DHT22;4703;48.748;19.142;2022-08-18T04:29:47;19.40;99.90
9329;DHT22;4703;48.748;19.142;2022-08-18T04:32:15;19.60;99.90
9329;DHT22;4703;48.748;19.142;2022-08-18T04:34:42;19.50;99.90
9329;DHT22;4703;48.748;19.142;2022-08-18T04:37:09;19.60;99.90
9329;DHT22;4703;48.748;19.142;2022-08-18T04:39:39;19.60;99.90
9329;DHT22;4703;48.748;19.142;2022-08-18T04:42:07;19.60;99.90
9329;DHT22;4703;48.748;19.142;2022-08-18T04:44:35;19.70;99.90
9329;DHT22;4703;48.748;19.142;2022-08-18T04:47:04;19.70;99.90
9329;DHT22;4703;48.748;19.142;2022-08-18T04:49:33;19.70;99.90
9329;DHT22;4703;48.748;19.142;2022-08-18T04:52:03;19.70;99.90
9329;DHT22;4703;48.748;19.142;2022-08-18T04:55:07;19.70;99.90
9329;DHT22;4703;48.748;19.142;2022-08-18T04:57:35;19.70;99.90
9329;DHT22;4703;48.748;19.142;2022-08-18T05:00:05;19.70;99.90
9329;DHT22;4703;48.748;19.142;2022-08-18T05:02:33;19.70;99.90
9329;DHT22;4703;48.748;19.142;2022-08-18T05:05:01;19.70;99.90
9329;DHT22;4703;48.748;19.142;2022-08-18T05:07:29;19.70;99.90
9329;DHT22;4703;48.748;19.142;2022-08-18T05:09:57;19.70;99.90
9329;DHT22;4703;48.748;19.142;2022-08-18T05:12:24;20.20;99.90
9329;DHT22;4703;48.748;19.142;2022-08-18T05:14:53;19.80;99.90
9329;DHT22;4703;48.748;19.142;2022-08-18T05:17:23;19.80;99.90
9329;DHT22;4703;48.748;19.142;2022-08-18T05:19:56;19.80;99.90
9329;DHT22;4703;48.748;19.142;2022-08-18T05:22:28;19.90;99.90
9329;DHT22;4703;48.748;19.142;2022-08-18T05:24:57;19.80;99.90
9329;DHT22;4703;48.748;19.142;2022-08-18T05:27:33;19.90;99.90
9329;DHT22;4703;48.748;19.142;2022-08-18T05:30:02;19.90;99.90
9329;DHT22;4703;48.748;19.142;2022-08-18T05:32:39;20.00;99.90
9329;DHT22;4703;48.748;19.142;2022-08-18T05:35:23;20.00;99.90
9329;DHT22;4703;48.748;19.142;2022-08-18T05:38:03;20.00;99.90
9329;DHT22;4703;48.748;19.142;2022-08-18T05:41:01;20.00;99.90
9329;DHT22;4703;48.748;19.142;2022-08-18T05:43:32;20.10;99.90
9329;DHT22;4703;48.748;19.142;2022-08-18T05:46:01;20.10;99.90
9329;DHT22;4703;48.748;19.142;2022-08-18T05:48:31;21.10;99.90
9329;DHT22;4703;48.748;19.142;2022-08-18T05:51:08;20.20;99.90
9329;DHT22;4703;48.748;19.142;2022-08-18T05:53:43;20.30;99.90
9329;DHT22;4703;48.748;19.142;2022-08-18T05:56:33;20.40;99.90
9329;DHT22;4703;48.748;19.142;2022-08-18T05:59:26;20.40;99.90
9329;DHT22;4703;48.748;19.142;2022-08-18T06:05:27;20.60;99.90
9329;DHT22;4703;48.748;19.142;2022-08-18T06:08:09;20.60;99.90
9329;DHT22;4703;48.748;19.142;2022-08-18T06:10:41;20.70;99.90
9329;DHT22;4703;48.748;19.142;2022-08-18T06:13:11;20.70;99.90
9329;DHT22;4703;48.748;19.142;2022-08-18T06:24:45;20.90;99.90
9329;DHT22;4703;48.748;19.142;2022-08-18T06:33:49;21.10;99.90
9329;DHT22;4703;48.748;19.142;2022-08-18T06:37:00;19.60;99.90
9329;DHT22;4703;48.748;19.142;2022-08-18T06:39:50;21.20;99.90
9329;DHT22;4703;48.748;19.142;2022-08-18T06:42:20;21.20;99.90
9329;DHT22;4703;48.748;19.142;2022-08-18T06:44:57;21.30;99.90
9329;DHT22;4703;48.748;19.142;2022-08-18T06:47:42;21.40;99.90
9329;DHT22;4703;48.748;19.142;2022-08-18T06:50:49;21.40;99.90
9329;DHT22;4703;48.748;19.142;2022-08-18T06:53:16;21.50;99.90
9329;DHT22;4703;48.748;19.142;2022-08-18T06:55:54;21.60;99.90
9329;DHT22;4703;48.748;19.142;2022-08-18T06:58:27;21.60;99.90
9329;DHT22;4703;48.748;19.142;2022-08-18T07:01:00;21.70;99.90
9329;DHT22;4703;48.748;19.142;2022-08-18T07:06:07;21.80;99.90
9329;DHT22;4703;48.748;19.142;2022-08-18T07:08:41;21.80;99.90
9329;DHT22;4703;48.748;19.142;2022-08-18T07:14:14;22.00;99.90
9329;DHT22;4703;48.748;19.142;2022-08-18T07:16:43;22.00;99.90
9329;DHT22;4703;48.748;19.142;2022-08-18T07:19:28;22.10;99.90
9329;DHT22;4703;48.748;19.142;2022-08-18T07:22:13;22.20;99.90
9329;DHT22;4703;48.748;19.142;2022-08-18T07:24:46;22.30;99.90
9329;DHT22;4703;48.748;19.142;2022-08-18T07:27:20;22.30;99.90
9329;DHT22;4703;48.748;19.142;2022-08-18T07:32:38;22.50;99.90
9329;DHT22;4703;48.748;19.142;2022-08-18T07:35:45;22.50;99.90
9329;DHT22;4703;48.748;19.142;2022-08-18T07:41:27;22.70;99.90
9329;DHT22;4703;48.748;19.142;2022-08-18T07:44:13;22.80;99.90
9329;DHT22;4703;48.748;19.142;2022-08-18T07:46:50;22.80;99.90
9329;DHT22;4703;48.748;19.142;2022-08-18T07:49:23;23.00;99.90
9329;DHT22;4703;48.748;19.142;2022-08-18T07:52:29;23.00;99.90
9329;DHT22;4703;48.748;19.142;2022-08-18T07:55:30;23.10;99.90
9329;DHT22;4703;48.748;19.142;2022-08-18T08:01:09;23.20;99.90
9329;DHT22;4703;48.748;19.142;2022-08-18T08:06:35;23.40;99.90
9329;DHT22;4703;48.748;19.142;2022-08-18T08:12:26;23.60;99.90
9329;DHT22;4703;48.748;19.142;2022-08-18T08:15:21;23.70;99.90
9329;DHT22;4703;48.748;19.142;2022-08-18T08:18:24;23.70;99.90
9329;DHT22;4703;48.748;19.142;2022-08-18T08:21:18;23.80;99.90
9329;DHT22;4703;48.748;19.142;2022-08-18T08:24:12;23.90;99.90
9329;DHT22;4703;48.748;19.142;2022-08-18T08:27:20;24.00;99.90
9329;DHT22;4703;48.748;19.142;2022-08-18T08:30:06;24.00;99.90
9329;DHT22;4703;48.748;19.142;2022-08-18T08:35:12;24.20;99.90
9329;DHT22;4703;48.748;19.142;2022-08-18T08:38:08;24.30;99.70
9329;DHT22;4703;48.748;19.142;2022-08-18T08:41:07;24.40;99.60
9329;DHT22;4703;48.748;19.142;2022-08-18T08:43:41;24.50;99.20
9329;DHT22;4703;48.748;19.142;2022-08-18T08:46:24;24.60;99.30
9329;DHT22;4703;48.748;19.142;2022-08-18T08:49:08;24.70;99.40
9329;DHT22;4703;48.748;19.142;2022-08-18T08:51:46;24.70;98.40
9329;DHT22;4703;48.748;19.142;2022-08-18T08:54:20;24.80;98.30
9329;DHT22;4703;48.748;19.142;2022-08-18T08:56:59;24.90;98.50
9329;DHT22;4703;48.748;19.142;2022-08-18T08:59:27;24.90;98.10
9329;DHT22;4703;48.748;19.142;2022-08-18T09:08:01;25.20;98.20
9329;DHT22;4703;48.748;19.142;2022-08-18T09:28:17;25.70;95.70
9329;DHT22;4703;48.748;19.142;2022-08-18T09:39:54;26.10;95.70
9329;DHT22;4703;48.748;19.142;2022-08-18T09:43:35;26.20;94.30
9329;DHT22;4703;48.748;19.142;2022-08-18T09:46:06;26.30;94.80
9329;DHT22;4703;48.748;19.142;2022-08-18T09:48:39;26.30;94.00
9329;DHT22;4703;48.748;19.142;2022-08-18T09:56:17;26.60;94.70
9329;DHT22;4703;48.748;19.142;2022-08-18T10:02:02;26.80;94.10
9329;DHT22;4703;48.748;19.142;2022-08-18T10:04:43;26.90;93.60
9329;DHT22;4703;48.748;19.142;2022-08-18T10:07:33;27.10;94.30
9329;DHT22;4703;48.748;19.142;2022-08-18T10:10:20;27.30;92.50
9329;DHT22;4703;48.748;19.142;2022-08-18T10:19:56;27.80;91.80
9329;DHT22;4703;48.748;19.142;2022-08-18T10:22:52;28.10;91.40
9329;DHT22;4703;48.748;19.142;2022-08-18T10:25:36;28.30;91.30
9329;DHT22;4703;48.748;19.142;2022-08-18T10:28:09;28.50;91.70
9329;DHT22;4703;48.748;19.142;2022-08-18T10:31:04;28.70;91.50
9329;DHT22;4703;48.748;19.142;2022-08-18T10:34:03;28.90;90.20
9329;DHT22;4703;48.748;19.142;2022-08-18T10:37:11;29.10;90.10
9329;DHT22;4703;48.748;19.142;2022-08-18T10:46:27;29.90;85.80
9329;DHT22;4703;48.748;19.142;2022-08-18T10:49:21;30.20;84.50
9329;DHT22;4703;48.748;19.142;2022-08-18T11:03:54;31.00;78.00
9329;DHT22;4703;48.748;19.142;2022-08-18T11:06:42;31.10;77.70
9329;DHT22;4703;48.748;19.142;2022-08-18T11:09:25;31.20;77.50
9329;DHT22;4703;48.748;19.142;2022-08-18T11:11:57;31.20;77.90
9329;DHT22;4703;48.748;19.142;2022-08-18T11:14:56;31.30;75.90
9329;DHT22;4703;48.748;19.142;2022-08-18T11:20:16;31.60;76.00
9329;DHT22;4703;48.748;19.142;2022-08-18T11:22:54;31.80;75.00
9329;DHT22;4703;48.748;19.142;2022-08-18T11:25:25;32.00;72.30
9329;DHT22;4703;48.748;19.142;2022-08-18T11:27:55;32.10;70.20
9329;DHT22;4703;48.748;19.142;2022-08-18T11:30:29;32.20;71.40
9329;DHT22;4703;48.748;19.142;2022-08-18T11:33:19;32.40;70.20
9329;DHT22;4703;48.748;19.142;2022-08-18T11:35:53;32.40;64.40
9329;DHT22;4703;48.748;19.142;2022-08-18T11:38:27;32.50;65.20
9329;DHT22;4703;48.748;19.142;2022-08-18T11:41:17;32.70;66.20
9329;DHT22;4703;48.748;19.142;2022-08-18T11:43:46;33.00;66.00
9329;DHT22;4703;48.748;19.142;2022-08-18T11:48:54;33.50;63.00
9329;DHT22;4703;48.748;19.142;2022-08-18T11:51:27;33.70;64.30
9329;DHT22;4703;48.748;19.142;2022-08-18T11:54:19;33.80;59.20
9329;DHT22;4703;48.748;19.142;2022-08-18T11:56:50;34.10;59.20
9329;DHT22;4703;48.748;19.142;2022-08-18T12:02:18;34.40;59.40
9329;DHT22;4703;48.748;19.142;2022-08-18T12:04:56;34.70;58.70
9329;DHT22;4703;48.748;19.142;2022-08-18T12:07:35;34.90;59.60
9329;DHT22;4703;48.748;19.142;2022-08-18T12:12:54;35.40;57.00
9329;DHT22;4703;48.748;19.142;2022-08-18T12:15:31;35.50;52.40
9329;DHT22;4703;48.748;19.142;2022-08-18T12:18:14;35.40;52.70
9329;DHT22;4703;48.748;19.142;2022-08-18T12:20:55;35.50;53.60
9329;DHT22;4703;48.748;19.142;2022-08-18T12:23:24;35.50;51.70
9329;DHT22;4703;48.748;19.142;2022-08-18T12:25:51;35.50;50.60
9329;DHT22;4703;48.748;19.142;2022-08-18T12:28:19;35.60;51.90
9329;DHT22;4703;48.748;19.142;2022-08-18T12:30:47;35.80;52.30
9329;DHT22;4703;48.748;19.142;2022-08-18T12:33:23;36.00;52.20
9329;DHT22;4703;48.748;19.142;2022-08-18T12:35:51;36.20;51.40
9329;DHT22;4703;48.748;19.142;2022-08-18T12:38:18;36.40;50.00
9329;DHT22;4703;48.748;19.142;2022-08-18T12:40:45;36.40;50.80
9329;DHT22;4703;48.748;19.142;2022-08-18T12:43:12;36.40;48.00
9329;DHT22;4703;48.748;19.142;2022-08-18T12:45:39;36.20;49.20
9329;DHT22;4703;48.748;19.142;2022-08-18T12:48:07;35.90;50.10
9329;DHT22;4703;48.748;19.142;2022-08-18T12:50:35;35.80;50.40
9329;DHT22;4703;48.748;19.142;2022-08-18T12:53:20;35.50;51.20
9329;DHT22;4703;48.748;19.142;2022-08-18T12:56:26;35.20;50.10
9329;DHT22;4703;48.748;19.142;2022-08-18T12:58:59;34.90;51.90
9329;DHT22;4703;48.748;19.142;2022-08-18T13:01:31;34.70;52.80
9329;DHT22;4703;48.748;19.142;2022-08-18T13:03:59;34.50;53.40
9329;DHT22;4703;48.748;19.142;2022-08-18T13:06:52;34.30;52.40
9329;DHT22;4703;48.748;19.142;2022-08-18T13:09:31;34.10;52.70
9329;DHT22;4703;48.748;19.142;2022-08-18T13:12:18;34.00;50.30
9329;DHT22;4703;48.748;19.142;2022-08-18T13:14:46;33.90;51.50
9329;DHT22;4703;48.748;19.142;2022-08-18T13:17:14;33.80;50.20
9329;DHT22;4703;48.748;19.142;2022-08-18T13:19:59;33.60;49.20
9329;DHT22;4703;48.748;19.142;2022-08-18T13:22:33;33.50;51.60
9329;DHT22;4703;48.748;19.142;2022-08-18T13:25:02;33.40;52.70
9329;DHT22;4703;48.748;19.142;2022-08-18T13:27:33;33.40;52.50
9329;DHT22;4703;48.748;19.142;2022-08-18T13:30:06;33.40;51.30
9329;DHT22;4703;48.748;19.142;2022-08-18T13:32:56;33.40;52.00
9329;DHT22;4703;48.748;19.142;2022-08-18T13:35:32;33.30;49.30
9329;DHT22;4703;48.748;19.142;2022-08-18T13:38:14;33.20;50.70
9329;DHT22;4703;48.748;19.142;2022-08-18T13:40:53;33.00;49.50
9329;DHT22;4703;48.748;19.142;2022-08-18T13:43:28;32.90;50.60
9329;DHT22;4703;48.748;19.142;2022-08-18T13:45:57;32.90;51.00
9329;DHT22;4703;48.748;19.142;2022-08-18T13:48:26;32.90;52.20
9329;DHT22;4703;48.748;19.142;2022-08-18T13:50:56;32.80;51.00
9329;DHT22;4703;48.748;19.142;2022-08-18T13:53:28;32.90;49.80
9329;DHT22;4703;48.748;19.142;2022-08-18T13:55:57;33.00;49.20
9329;DHT22;4703;48.748;19.142;2022-08-18T13:58:26;33.00;50.50
9329;DHT22;4703;48.748;19.142;2022-08-18T14:01:02;32.90;49.50
9329;DHT22;4703;48.748;19.142;2022-08-18T14:03:50;32.90;51.20
9329;DHT22;4703;48.748;19.142;2022-08-18T14:06:18;32.80;51.90
9329;DHT22;4703;48.748;19.142;2022-08-18T14:08:50;32.80;51.90
9329;DHT22;4703;48.748;19.142;2022-08-18T14:11:19;32.90;51.10
9329;DHT22;4703;48.748;19.142;2022-08-18T14:13:51;33.10;52.00
9329;DHT22;4703;48.748;19.142;2022-08-18T14:16:24;33.20;52.80
9329;DHT22;4703;48.748;19.142;2022-08-18T14:18:53;33.20;53.70
9329;DHT22;4703;48.748;19.142;2022-08-18T14:21:45;33.10;53.40
9329;DHT22;4703;48.748;19.142;2022-08-18T14:24:39;33.00;52.90
9329;DHT22;4703;48.748;19.142;2022-08-18T14:27:34;32.80;55.10
9329;DHT22;4703;48.748;19.142;2022-08-18T14:30:09;32.60;55.40
9329;DHT22;4703;48.748;19.142;2022-08-18T14:32:39;32.50;55.30
9329;DHT22;4703;48.748;19.142;2022-08-18T14:35:15;32.60;54.70
9329;DHT22;4703;48.748;19.142;2022-08-18T14:38:00;32.70;55.20
9329;DHT22;4703;48.748;19.142;2022-08-18T14:40:29;32.80;55.10
9329;DHT22;4703;48.748;19.142;2022-08-18T14:42:58;32.90;55.00
9329;DHT22;4703;48.748;19.142;2022-08-18T14:45:25;33.10;54.30
9329;DHT22;4703;48.748;19.142;2022-08-18T14:48:05;33.20;53.60
9329;DHT22;4703;48.748;19.142;2022-08-18T14:50:37;33.30;53.30
9329;DHT22;4703;48.748;19.142;2022-08-18T14:53:10;33.40;52.00
9329;DHT22;4703;48.748;19.142;2022-08-18T14:55:40;33.40;52.00
9329;DHT22;4703;48.748;19.142;2022-08-18T14:58:09;33.50;52.70
9329;DHT22;4703;48.748;19.142;2022-08-18T15:00:37;33.50;51.60
9329;DHT22;4703;48.748;19.142;2022-08-18T15:03:20;33.70;52.00
9329;DHT22;4703;48.748;19.142;2022-08-18T15:05:58;34.10;53.50
9329;DHT22;4703;48.748;19.142;2022-08-18T15:08:31;34.70;54.00
9329;DHT22;4703;48.748;19.142;2022-08-18T15:11:02;35.10;52.90
9329;DHT22;4703;48.748;19.142;2022-08-18T15:13:39;35.60;52.70
9329;DHT22;4703;48.748;19.142;2022-08-18T15:16:08;36.00;51.90
9329;DHT22;4703;48.748;19.142;2022-08-18T15:18:40;36.40;49.00
9329;DHT22;4703;48.748;19.142;2022-08-18T15:21:09;36.60;49.40
9329;DHT22;4703;48.748;19.142;2022-08-18T15:24:04;36.80;50.00
9329;DHT22;4703;48.748;19.142;2022-08-18T15:26:52;37.00;49.60
9329;DHT22;4703;48.748;19.142;2022-08-18T15:29:24;37.20;47.50
9329;DHT22;4703;48.748;19.142;2022-08-18T15:31:56;37.00;48.20
9329;DHT22;4703;48.748;19.142;2022-08-18T15:34:32;36.50;47.70
9329;DHT22;4703;48.748;19.142;2022-08-18T15:37:18;35.90;47.30
9329;DHT22;4703;48.748;19.142;2022-08-18T15:39:58;35.40;50.10
9329;DHT22;4703;48.748;19.142;2022-08-18T15:42:28;34.90;52.10
9329;DHT22;4703;48.748;19.142;2022-08-18T15:44:55;34.60;51.50
9329;DHT22;4703;48.748;19.142;2022-08-18T15:47:37;34.20;52.20
9329;DHT22;4703;48.748;19.142;2022-08-18T15:50:06;33.90;52.20
9329;DHT22;4703;48.748;19.142;2022-08-18T15:52:57;33.60;53.40
9329;DHT22;4703;48.748;19.142;2022-08-18T15:55:29;33.40;55.30
9329;DHT22;4703;48.748;19.142;2022-08-18T15:58:01;33.20;56.70
9329;DHT22;4703;48.748;19.142;2022-08-18T16:00:39;33.00;57.20
9329;DHT22;4703;48.748;19.142;2022-08-18T16:03:10;32.70;58.00
9329;DHT22;4703;48.748;19.142;2022-08-18T16:05:49;32.60;58.90
9329;DHT22;4703;48.748;19.142;2022-08-18T16:08:23;32.40;57.70
9329;DHT22;4703;48.748;19.142;2022-08-18T16:10:52;32.20;58.30
9329;DHT22;4703;48.748;19.142;2022-08-18T16:13:20;32.10;56.10
9329;DHT22;4703;48.748;19.142;2022-08-18T16:15:47;31.90;55.10
9329;DHT22;4703;48.748;19.142;2022-08-18T16:18:17;31.80;56.40
9329;DHT22;4703;48.748;19.142;2022-08-18T16:20:46;31.70;57.30
9329;DHT22;4703;48.748;19.142;2022-08-18T16:23:16;31.70;57.70
9329;DHT22;4703;48.748;19.142;2022-08-18T16:25:43;31.80;57.60
9329;DHT22;4703;48.748;19.142;2022-08-18T16:28:11;31.90;57.70
9329;DHT22;4703;48.748;19.142;2022-08-18T16:30:39;32.10;58.40
9329;DHT22;4703;48.748;19.142;2022-08-18T16:33:06;32.40;58.10
9329;DHT22;4703;48.748;19.142;2022-08-18T16:35:35;32.70;57.70
9329;DHT22;4703;48.748;19.142;2022-08-18T16:38:05;33.00;56.30
9329;DHT22;4703;48.748;19.142;2022-08-18T16:40:35;33.20;56.60
9329;DHT22;4703;48.748;19.142;2022-08-18T16:43:03;33.40;58.00
9329;DHT22;4703;48.748;19.142;2022-08-18T16:45:35;33.40;59.80
9329;DHT22;4703;48.748;19.142;2022-08-18T16:48:02;33.20;59.40
9329;DHT22;4703;48.748;19.142;2022-08-18T16:50:30;33.00;60.40
9329;DHT22;4703;48.748;19.142;2022-08-18T16:52:56;32.70;59.40
9329;DHT22;4703;48.748;19.142;2022-08-18T16:55:24;32.40;61.20
9329;DHT22;4703;48.748;19.142;2022-08-18T16:57:51;32.10;60.80
9329;DHT22;4703;48.748;19.142;2022-08-18T17:00:41;31.90;61.20
9329;DHT22;4703;48.748;19.142;2022-08-18T17:03:27;31.60;61.10
9329;DHT22;4703;48.748;19.142;2022-08-18T17:06:15;31.40;63.30
9329;DHT22;4703;48.748;19.142;2022-08-18T17:08:45;31.20;64.40
9329;DHT22;4703;48.748;19.142;2022-08-18T17:11:17;30.90;60.90
9329;DHT22;4703;48.748;19.142;2022-08-18T17:13:48;30.60;64.70
9329;DHT22;4703;48.748;19.142;2022-08-18T17:16:17;30.20;69.30
9329;DHT22;4703;48.748;19.142;2022-08-18T17:18:45;29.90;69.20
9329;DHT22;4703;48.748;19.142;2022-08-18T17:21:16;29.60;70.40
9329;DHT22;4703;48.748;19.142;2022-08-18T17:23:45;29.40;74.50
9329;DHT22;4703;48.748;19.142;2022-08-18T17:26:43;29.30;75.10
9329;DHT22;4703;48.748;19.142;2022-08-18T17:29:25;29.10;77.40
9329;DHT22;4703;48.748;19.142;2022-08-18T17:32:00;29.00;76.40
9329;DHT22;4703;48.748;19.142;2022-08-18T17:34:35;29.00;74.00
9329;DHT22;4703;48.748;19.142;2022-08-18T17:37:08;28.90;76.10
9329;DHT22;4703;48.748;19.142;2022-08-18T17:39:52;28.80;74.90
9329;DHT22;4703;48.748;19.142;2022-08-18T17:42:21;28.70;76.50
9329;DHT22;4703;48.748;19.142;2022-08-18T17:44:56;28.60;76.60
9329;DHT22;4703;48.748;19.142;2022-08-18T17:47:30;28.60;76.50
9329;DHT22;4703;48.748;19.142;2022-08-18T17:50:07;28.60;78.40
9329;DHT22;4703;48.748;19.142;2022-08-18T17:53:04;28.50;76.90
9329;DHT22;4703;48.748;19.142;2022-08-18T17:56:00;28.40;79.30
9329;DHT22;4703;48.748;19.142;2022-08-18T17:58:44;28.40;81.10
9329;DHT22;4703;48.748;19.142;2022-08-18T18:01:14;28.40;79.10
9329;DHT22;4703;48.748;19.142;2022-08-18T18:03:42;28.30;80.50
9329;DHT22;4703;48.748;19.142;2022-08-18T18:09:10;28.20;82.50
9329;DHT22;4703;48.748;19.142;2022-08-18T18:11:54;28.10;81.10
9329;DHT22;4703;48.748;19.142;2022-08-18T18:14:36;28.00;81.60
9329;DHT22;4703;48.748;19.142;2022-08-18T18:20:34;27.80;81.90
9329;DHT22;4703;48.748;19.142;2022-08-18T18:23:21;27.80;81.90
9329;DHT22;4703;48.748;19.142;2022-08-18T18:25:49;27.70;81.70
9329;DHT22;4703;48.748;19.142;2022-08-18T18:28:28;27.60;82.20
9329;DHT22;4703;48.748;19.142;2022-08-18T18:30:59;27.60;81.20
9329;DHT22;4703;48.748;19.142;2022-08-18T18:33:42;27.50;80.70
9329;DHT22;4703;48.748;19.142;2022-08-18T18:36:09;27.40;83.70
9329;DHT22;4703;48.748;19.142;2022-08-18T18:38:39;27.40;83.30
9329;DHT22;4703;48.748;19.142;2022-08-18T18:41:25;27.30;83.90
9329;DHT22;4703;48.748;19.142;2022-08-18T18:44:05;27.20;84.80
9329;DHT22;4703;48.748;19.142;2022-08-18T18:46:48;27.20;85.10
9329;DHT22;4703;48.748;19.142;2022-08-18T18:49:38;27.10;85.40
9329;DHT22;4703;48.748;19.142;2022-08-18T18:52:31;27.10;85.90